sensor_id;sensor_type;location;lat;lon;timestamp;P1;durP1;ratioP1;P2;durP2;ratioP2
37231;SDS011;23125;48.156;15.954;2023-08-30T00:00:33;1.00;;;0.90;;
37231;SDS011;23125;48.156;15.954;2023-08-30T00:02:59;2.38;;;0.90;;
37231;SDS011;23125;48.156;15.954;2023-08-30T00:05:25;1.35;;;0.80;;
37231;SDS011;23125;48.156;15.954;2023-08-30T00:07:53;1.60;;;1.20;;
37231;SDS011;23125;48.156;15.954;2023-08-30T00:10:19;1.50;;;0.90;;
37231;SDS011;23125;48.156;15.954;2023-08-30T00:12:45;1.15;;;0.88;;
37231;SDS011;23125;48.156;15.954;2023-08-30T00:15:11;2.25;;;1.00;;
37231;SDS011;23125;48.156;15.954;2023-08-30T00:17:37;1.55;;;1.10;;
37231;SDS011;23125;48.156;15.954;2023-08-30T00:20:03;2.45;;;1.00;;
37231;SDS011;23125;48.156;15.954;2023-08-30T00:22:29;1.27;;;0.90;;
37231;SDS011;23125;48.156;15.954;2023-08-30T00:24:55;1.15;;;0.90;;
37231;SDS011;23125;48.156;15.954;2023-08-30T00:27:20;1.42;;;1.00;;
37231;SDS011;23125;48.156;15.954;2023-08-30T00:29:47;1.95;;;1.13;;
37231;SDS011;23125;48.156;15.954;2023-08-30T00:32:12;2.97;;;1.27;;
37231;SDS011;23125;48.156;15.954;2023-08-30T00:34:38;1.35;;;1.08;;
37231;SDS011;23125;48.156;15.954;2023-08-30T00:37:04;1.38;;;0.80;;
37231;SDS011;23125;48.156;15.954;2023-08-30T00:39:30;1.27;;;0.98;;
37231;SDS011;23125;48.156;15.954;2023-08-30T00:41:56;1.38;;;1.23;;
37231;SDS011;23125;48.156;15.954;2023-08-30T00:44:22;1.27;;;1.10;;
37231;SDS011;23125;48.156;15.954;2023-08-30T00:46:48;1.92;;;0.80;;
37231;SDS011;23125;48.156;15.954;2023-08-30T00:49:14;1.05;;;0.80;;
37231;SDS011;23125;48.156;15.954;2023-08-30T00:51:40;1.73;;;1.00;;
37231;SDS011;23125;48.156;15.954;2023-08-30T00:54:06;2.95;;;1.00;;
37231;SDS011;23125;48.156;15.954;2023-08-30T00:56:33;1.42;;;1.10;;
37231;SDS011;23125;48.156;15.954;2023-08-30T00:59:00;1.00;;;0.90;;
37231;SDS011;23125;48.156;15.954;2023-08-30T01:01:26;1.75;;;1.00;;
37231;SDS011;23125;48.156;15.954;2023-08-30T01:03:51;1.27;;;0.82;;
37231;SDS011;23125;48.156;15.954;2023-08-30T01:06:17;1.58;;;1.00;;
37231;SDS011;23125;48.156;15.954;2023-08-30T01:08:43;1.40;;;0.90;;
37231;SDS011;23125;48.156;15.954;2023-08-30T01:11:18;1.13;;;0.90;;
37231;SDS011;23125;48.156;15.954;2023-08-30T01:14:03;1.60;;;0.88;;
37231;SDS011;23125;48.156;15.954;2023-08-30T01:16:35;0.73;;;0.60;;
37231;SDS011;23125;48.156;15.954;2023-08-30T01:19:10;1.33;;;1.05;;
37231;SDS011;23125;48.156;15.954;2023-08-30T01:24:37;1.38;;;1.02;;
37231;SDS011;23125;48.156;15.954;2023-08-30T01:27:11;1.55;;;1.10;;
37231;SDS011;23125;48.156;15.954;2023-08-30T01:29:39;1.20;;;0.90;;
37231;SDS011;23125;48.156;15.954;2023-08-30T01:32:08;1.25;;;0.95;;
37231;SDS011;23125;48.156;15.954;2023-08-30T01:34:35;1.15;;;0.80;;
37231;SDS011;23125;48.156;15.954;2023-08-30T01:37:04;1.35;;;1.05;;
37231;SDS011;23125;48.156;15.954;2023-08-30T01:39:34;2.17;;;1.25;;
37231;SDS011;23125;48.156;15.954;2023-08-30T01:42:02;1.55;;;1.13;;
37231;SDS011;23125;48.156;15.954;2023-08-30T01:44:29;2.85;;;1.33;;
37231;SDS011;23125;48.156;15.954;2023-08-30T01:46:56;1.55;;;0.93;;
37231;SDS011;23125;48.156;15.954;2023-08-30T01:49:23;1.17;;;0.90;;
37231;SDS011;23125;48.156;15.954;2023-08-30T01:51:57;1.58;;;0.95;;
37231;SDS011;23125;48.156;15.954;2023-08-30T01:54:24;1.52;;;1.08;;
37231;SDS011;23125;48.156;15.954;2023-08-30T01:56:52;2.13;;;1.23;;
37231;SDS011;23125;48.156;15.954;2023-08-30T01:59:19;1.23;;;0.90;;
37231;SDS011;23125;48.156;15.954;2023-08-30T02:01:44;1.23;;;0.98;;
37231;SDS011;23125;48.156;15.954;2023-08-30T02:04:10;1.13;;;0.70;;
37231;SDS011;23125;48.156;15.954;2023-08-30T02:06:42;1.38;;;1.00;;
37231;SDS011;23125;48.156;15.954;2023-08-30T02:09:26;1.15;;;0.98;;
37231;SDS011;23125;48.156;15.954;2023-08-30T02:11:55;1.40;;;0.90;;
37231;SDS011;23125;48.156;15.954;2023-08-30T02:14:25;1.20;;;0.68;;
37231;SDS011;23125;48.156;15.954;2023-08-30T02:16:52;1.02;;;0.82;;
37231;SDS011;23125;48.156;15.954;2023-08-30T02:19:20;1.05;;;0.70;;
37231;SDS011;23125;48.156;15.954;2023-08-30T02:21:47;0.70;;;0.50;;
37231;SDS011;23125;48.156;15.954;2023-08-30T02:24:13;1.67;;;0.60;;
37231;SDS011;23125;48.156;15.954;2023-08-30T02:26:39;0.80;;;0.60;;
37231;SDS011;23125;48.156;15.954;2023-08-30T02:29:05;0.88;;;0.57;;
37231;SDS011;23125;48.156;15.954;2023-08-30T02:31:31;0.70;;;0.50;;
37231;SDS011;23125;48.156;15.954;2023-08-30T02:33:57;1.67;;;0.70;;
37231;SDS011;23125;48.156;15.954;2023-08-30T02:36:23;0.82;;;0.52;;
37231;SDS011;23125;48.156;15.954;2023-08-30T02:38:49;1.35;;;1.10;;
37231;SDS011;23125;48.156;15.954;2023-08-30T02:41:15;1.25;;;0.75;;
37231;SDS011;23125;48.156;15.954;2023-08-30T02:43:40;1.50;;;0.98;;
37231;SDS011;23125;48.156;15.954;2023-08-30T02:46:06;1.40;;;0.80;;
37231;SDS011;23125;48.156;15.954;2023-08-30T02:48:32;1.13;;;0.80;;
37231;SDS011;23125;48.156;15.954;2023-08-30T02:50:59;4.38;;;1.10;;
37231;SDS011;23125;48.156;15.954;2023-08-30T02:53:25;2.80;;;2.42;;
37231;SDS011;23125;48.156;15.954;2023-08-30T02:55:50;1.70;;;1.60;;
37231;SDS011;23125;48.156;15.954;2023-08-30T02:58:16;3.97;;;3.28;;
37231;SDS011;23125;48.156;15.954;2023-08-30T03:00:42;2.58;;;2.20;;
37231;SDS011;23125;48.156;15.954;2023-08-30T03:03:08;2.85;;;2.65;;
37231;SDS011;23125;48.156;15.954;2023-08-30T03:05:34;2.70;;;2.38;;
37231;SDS011;23125;48.156;15.954;2023-08-30T03:07:59;1.67;;;1.58;;
37231;SDS011;23125;48.156;15.954;2023-08-30T03:10:25;2.67;;;1.50;;
37231;SDS011;23125;48.156;15.954;2023-08-30T03:12:51;1.40;;;1.30;;
37231;SDS011;23125;48.156;15.954;2023-08-30T03:15:17;2.15;;;1.63;;
37231;SDS011;23125;48.156;15.954;2023-08-30T03:17:43;1.73;;;1.17;;
37231;SDS011;23125;48.156;15.954;2023-08-30T03:20:08;2.33;;;1.50;;
37231;SDS011;23125;48.156;15.954;2023-08-30T03:22:35;2.58;;;1.63;;
37231;SDS011;23125;48.156;15.954;2023-08-30T03:25:01;2.20;;;2.00;;
37231;SDS011;23125;48.156;15.954;2023-08-30T03:27:29;2.53;;;1.80;;
37231;SDS011;23125;48.156;15.954;2023-08-30T03:29:55;2.10;;;1.73;;
37231;SDS011;23125;48.156;15.954;2023-08-30T03:32:21;2.05;;;1.85;;
37231;SDS011;23125;48.156;15.954;2023-08-30T03:34:48;1.90;;;1.63;;
37231;SDS011;23125;48.156;15.954;2023-08-30T03:37:14;2.75;;;1.88;;
37231;SDS011;23125;48.156;15.954;2023-08-30T03:39:41;2.30;;;1.63;;
37231;SDS011;23125;48.156;15.954;2023-08-30T03:42:07;2.53;;;1.48;;
37231;SDS011;23125;48.156;15.954;2023-08-30T03:44:34;2.63;;;2.05;;
37231;SDS011;23125;48.156;15.954;2023-08-30T03:47:00;2.72;;;2.00;;
37231;SDS011;23125;48.156;15.954;2023-08-30T03:49:26;2.80;;;2.20;;
37231;SDS011;23125;48.156;15.954;2023-08-30T03:51:52;2.47;;;2.15;;
37231;SDS011;23125;48.156;15.954;2023-08-30T03:54:18;2.60;;;2.35;;
37231;SDS011;23125;48.156;15.954;2023-08-30T03:56:44;2.42;;;2.22;;
37231;SDS011;23125;48.156;15.954;2023-08-30T03:59:11;3.85;;;2.97;;
37231;SDS011;23125;48.156;15.954;2023-08-30T04:01:37;3.20;;;2.90;;
37231;SDS011;23125;48.156;15.954;2023-08-30T04:04:03;4.28;;;2.70;;
37231;SDS011;23125;48.156;15.954;2023-08-30T04:06:30;3.63;;;2.80;;
37231;SDS011;23125;48.156;15.954;2023-08-30T04:08:56;3.45;;;2.63;;
37231;SDS011;23125;48.156;15.954;2023-08-30T04:11:22;3.22;;;2.90;;
37231;SDS011;23125;48.156;15.954;2023-08-30T04:13:48;3.40;;;3.05;;
37231;SDS011;23125;48.156;15.954;2023-08-30T04:16:14;4.15;;;3.50;;
37231;SDS011;23125;48.156;15.954;2023-08-30T04:18:40;3.55;;;3.25;;
37231;SDS011;23125;48.156;15.954;2023-08-30T04:21:06;4.00;;;3.60;;
37231;SDS011;23125;48.156;15.954;2023-08-30T04:23:33;6.13;;;3.35;;
37231;SDS011;23125;48.156;15.954;2023-08-30T04:26:00;4.65;;;3.90;;
37231;SDS011;23125;48.156;15.954;2023-08-30T04:28:26;3.70;;;3.15;;
37231;SDS011;23125;48.156;15.954;2023-08-30T04:30:55;3.72;;;3.33;;
37231;SDS011;23125;48.156;15.954;2023-08-30T04:35:51;3.65;;;3.28;;
37231;SDS011;23125;48.156;15.954;2023-08-30T04:40:44;4.28;;;3.10;;
37231;SDS011;23125;48.156;15.954;2023-08-30T04:43:10;3.10;;;2.80;;
37231;SDS011;23125;48.156;15.954;2023-08-30T04:45:37;3.45;;;2.90;;
37231;SDS011;23125;48.156;15.954;2023-08-30T04:48:03;3.60;;;2.90;;
37231;SDS011;23125;48.156;15.954;2023-08-30T04:50:30;3.45;;;3.00;;
37231;SDS011;23125;48.156;15.954;2023-08-30T04:52:57;4.13;;;2.95;;
37231;SDS011;23125;48.156;15.954;2023-08-30T04:55:24;3.70;;;3.40;;
37231;SDS011;23125;48.156;15.954;2023-08-30T04:57:50;3.78;;;2.92;;
37231;SDS011;23125;48.156;15.954;2023-08-30T05:00:16;3.75;;;3.08;;
37231;SDS011;23125;48.156;15.954;2023-08-30T05:02:43;4.10;;;3.40;;
37231;SDS011;23125;48.156;15.954;2023-08-30T05:05:11;4.00;;;3.53;;
37231;SDS011;23125;48.156;15.954;2023-08-30T05:07:38;4.22;;;3.58;;
37231;SDS011;23125;48.156;15.954;2023-08-30T05:10:04;4.55;;;3.45;;
37231;SDS011;23125;48.156;15.954;2023-08-30T05:12:32;4.15;;;3.58;;
37231;SDS011;23125;48.156;15.954;2023-08-30T05:14:59;4.03;;;3.63;;
37231;SDS011;23125;48.156;15.954;2023-08-30T05:17:25;4.35;;;3.60;;
37231;SDS011;23125;48.156;15.954;2023-08-30T05:19:53;6.53;;;3.83;;
37231;SDS011;23125;48.156;15.954;2023-08-30T05:22:19;4.22;;;3.80;;
37231;SDS011;23125;48.156;15.954;2023-08-30T05:24:45;3.97;;;3.60;;
37231;SDS011;23125;48.156;15.954;2023-08-30T05:27:11;4.50;;;3.85;;
37231;SDS011;23125;48.156;15.954;2023-08-30T05:29:38;4.03;;;3.63;;
37231;SDS011;23125;48.156;15.954;2023-08-30T05:32:04;5.43;;;3.40;;
37231;SDS011;23125;48.156;15.954;2023-08-30T05:34:30;3.35;;;3.05;;
37231;SDS011;23125;48.156;15.954;2023-08-30T05:36:56;4.20;;;3.40;;
37231;SDS011;23125;48.156;15.954;2023-08-30T05:39:22;4.07;;;3.67;;
37231;SDS011;23125;48.156;15.954;2023-08-30T05:41:47;4.07;;;3.60;;
37231;SDS011;23125;48.156;15.954;2023-08-30T05:44:13;3.97;;;3.40;;
37231;SDS011;23125;48.156;15.954;2023-08-30T05:46:39;3.83;;;3.42;;
37231;SDS011;23125;48.156;15.954;2023-08-30T05:49:05;4.55;;;3.83;;
37231;SDS011;23125;48.156;15.954;2023-08-30T05:51:31;3.90;;;3.50;;
37231;SDS011;23125;48.156;15.954;2023-08-30T05:53:57;4.63;;;3.78;;
37231;SDS011;23125;48.156;15.954;2023-08-30T05:56:22;4.28;;;3.35;;
37231;SDS011;23125;48.156;15.954;2023-08-30T05:58:48;4.88;;;3.75;;
37231;SDS011;23125;48.156;15.954;2023-08-30T06:01:17;3.65;;;3.33;;
37231;SDS011;23125;48.156;15.954;2023-08-30T06:03:45;3.58;;;3.28;;
37231;SDS011;23125;48.156;15.954;2023-08-30T06:06:12;3.65;;;3.35;;
37231;SDS011;23125;48.156;15.954;2023-08-30T06:08:39;4.43;;;3.50;;
37231;SDS011;23125;48.156;15.954;2023-08-30T06:11:04;3.45;;;3.00;;
37231;SDS011;23125;48.156;15.954;2023-08-30T06:13:30;3.33;;;3.00;;
37231;SDS011;23125;48.156;15.954;2023-08-30T06:15:56;3.60;;;3.20;;
37231;SDS011;23125;48.156;15.954;2023-08-30T06:18:22;4.10;;;3.70;;
37231;SDS011;23125;48.156;15.954;2023-08-30T06:20:48;3.95;;;3.40;;
37231;SDS011;23125;48.156;15.954;2023-08-30T06:23:18;3.42;;;2.97;;
37231;SDS011;23125;48.156;15.954;2023-08-30T06:25:52;3.10;;;2.80;;
37231;SDS011;23125;48.156;15.954;2023-08-30T06:28:19;3.08;;;2.78;;
37231;SDS011;23125;48.156;15.954;2023-08-30T06:30:45;3.60;;;2.90;;
37231;SDS011;23125;48.156;15.954;2023-08-30T06:33:11;3.75;;;2.97;;
37231;SDS011;23125;48.156;15.954;2023-08-30T06:35:37;3.10;;;2.80;;
37231;SDS011;23125;48.156;15.954;2023-08-30T06:40:32;3.33;;;2.85;;
37231;SDS011;23125;48.156;15.954;2023-08-30T06:42:58;2.63;;;2.15;;
37231;SDS011;23125;48.156;15.954;2023-08-30T06:45:24;2.80;;;2.50;;
37231;SDS011;23125;48.156;15.954;2023-08-30T06:47:50;2.25;;;2.05;;
37231;SDS011;23125;48.156;15.954;2023-08-30T06:50:17;2.85;;;2.17;;
37231;SDS011;23125;48.156;15.954;2023-08-30T06:52:43;2.53;;;2.10;;
37231;SDS011;23125;48.156;15.954;2023-08-30T06:55:09;2.45;;;2.22;;
37231;SDS011;23125;48.156;15.954;2023-08-30T06:57:35;2.15;;;1.88;;
37231;SDS011;23125;48.156;15.954;2023-08-30T07:00:01;3.17;;;2.08;;
37231;SDS011;23125;48.156;15.954;2023-08-30T07:02:33;2.20;;;2.00;;
37231;SDS011;23125;48.156;15.954;2023-08-30T07:07:29;2.30;;;2.10;;
37231;SDS011;23125;48.156;15.954;2023-08-30T07:09:56;3.05;;;2.20;;
37231;SDS011;23125;48.156;15.954;2023-08-30T07:12:22;2.33;;;2.13;;
37231;SDS011;23125;48.156;15.954;2023-08-30T07:14:47;2.33;;;2.03;;
37231;SDS011;23125;48.156;15.954;2023-08-30T07:17:13;2.72;;;1.95;;
37231;SDS011;23125;48.156;15.954;2023-08-30T07:19:39;2.28;;;2.08;;
37231;SDS011;23125;48.156;15.954;2023-08-30T07:22:05;1.95;;;1.77;;
37231;SDS011;23125;48.156;15.954;2023-08-30T07:24:31;2.15;;;1.85;;
37231;SDS011;23125;48.156;15.954;2023-08-30T07:26:57;2.33;;;2.08;;
37231;SDS011;23125;48.156;15.954;2023-08-30T07:29:22;2.25;;;2.05;;
37231;SDS011;23125;48.156;15.954;2023-08-30T07:31:48;1.92;;;1.75;;
37231;SDS011;23125;48.156;15.954;2023-08-30T07:34:17;2.42;;;1.55;;
37231;SDS011;23125;48.156;15.954;2023-08-30T07:36:42;1.88;;;1.45;;
37231;SDS011;23125;48.156;15.954;2023-08-30T07:39:08;2.00;;;1.80;;
37231;SDS011;23125;48.156;15.954;2023-08-30T07:41:34;2.00;;;1.60;;
37231;SDS011;23125;48.156;15.954;2023-08-30T07:44:00;1.40;;;1.30;;
37231;SDS011;23125;48.156;15.954;2023-08-30T07:46:26;1.63;;;1.17;;
37231;SDS011;23125;48.156;15.954;2023-08-30T07:48:53;1.30;;;1.10;;
37231;SDS011;23125;48.156;15.954;2023-08-30T07:51:20;1.48;;;1.13;;
37231;SDS011;23125;48.156;15.954;2023-08-30T07:53:46;2.38;;;0.98;;
37231;SDS011;23125;48.156;15.954;2023-08-30T07:56:12;1.42;;;0.90;;
37231;SDS011;23125;48.156;15.954;2023-08-30T07:58:40;1.25;;;1.00;;
37231;SDS011;23125;48.156;15.954;2023-08-30T08:01:07;0.77;;;0.77;;
37231;SDS011;23125;48.156;15.954;2023-08-30T08:03:34;0.60;;;0.60;;
37231;SDS011;23125;48.156;15.954;2023-08-30T08:06:00;1.35;;;0.70;;
37231;SDS011;23125;48.156;15.954;2023-08-30T08:08:25;0.82;;;0.70;;
37231;SDS011;23125;48.156;15.954;2023-08-30T08:10:51;1.63;;;0.90;;
37231;SDS011;23125;48.156;15.954;2023-08-30T08:13:17;1.52;;;0.90;;
37231;SDS011;23125;48.156;15.954;2023-08-30T08:15:43;1.08;;;0.98;;
37231;SDS011;23125;48.156;15.954;2023-08-30T08:18:09;1.75;;;1.10;;
37231;SDS011;23125;48.156;15.954;2023-08-30T08:20:38;1.35;;;1.20;;
37231;SDS011;23125;48.156;15.954;2023-08-30T08:23:04;1.23;;;1.10;;
37231;SDS011;23125;48.156;15.954;2023-08-30T08:25:30;1.25;;;1.02;;
37231;SDS011;23125;48.156;15.954;2023-08-30T08:27:56;1.15;;;0.90;;
37231;SDS011;23125;48.156;15.954;2023-08-30T08:30:22;1.73;;;1.23;;
37231;SDS011;23125;48.156;15.954;2023-08-30T08:32:48;2.72;;;1.27;;
37231;SDS011;23125;48.156;15.954;2023-08-30T08:35:14;1.83;;;1.20;;
37231;SDS011;23125;48.156;15.954;2023-08-30T08:37:40;1.50;;;1.20;;
37231;SDS011;23125;48.156;15.954;2023-08-30T08:40:06;2.88;;;1.20;;
37231;SDS011;23125;48.156;15.954;2023-08-30T08:42:36;1.02;;;0.80;;
37231;SDS011;23125;48.156;15.954;2023-08-30T08:45:02;1.20;;;1.00;;
37231;SDS011;23125;48.156;15.954;2023-08-30T08:47:30;0.85;;;0.60;;
37231;SDS011;23125;48.156;15.954;2023-08-30T08:49:57;1.63;;;1.08;;
37231;SDS011;23125;48.156;15.954;2023-08-30T08:52:24;0.95;;;0.80;;
37231;SDS011;23125;48.156;15.954;2023-08-30T08:54:51;1.55;;;1.08;;
37231;SDS011;23125;48.156;15.954;2023-08-30T08:57:18;1.60;;;0.82;;
37231;SDS011;23125;48.156;15.954;2023-08-30T08:59:44;0.80;;;0.80;;
37231;SDS011;23125;48.156;15.954;2023-08-30T09:02:14;0.95;;;0.60;;
37231;SDS011;23125;48.156;15.954;2023-08-30T09:07:06;1.08;;;0.70;;
37231;SDS011;23125;48.156;15.954;2023-08-30T09:09:35;2.45;;;0.68;;
37231;SDS011;23125;48.156;15.954;2023-08-30T09:12:02;1.23;;;0.90;;
37231;SDS011;23125;48.156;15.954;2023-08-30T09:14:28;1.17;;;0.90;;
37231;SDS011;23125;48.156;15.954;2023-08-30T09:16:54;4.72;;;1.20;;
37231;SDS011;23125;48.156;15.954;2023-08-30T09:19:25;1.20;;;1.10;;
37231;SDS011;23125;48.156;15.954;2023-08-30T09:21:54;1.60;;;1.08;;
37231;SDS011;23125;48.156;15.954;2023-08-30T09:24:22;1.13;;;1.00;;
37231;SDS011;23125;48.156;15.954;2023-08-30T09:26:52;2.78;;;1.00;;
37231;SDS011;23125;48.156;15.954;2023-08-30T09:29:19;1.33;;;1.00;;
37231;SDS011;23125;48.156;15.954;2023-08-30T09:31:50;1.27;;;1.00;;
37231;SDS011;23125;48.156;15.954;2023-08-30T09:34:22;1.38;;;0.90;;
37231;SDS011;23125;48.156;15.954;2023-08-30T09:36:50;1.13;;;1.02;;
37231;SDS011;23125;48.156;15.954;2023-08-30T09:39:16;1.20;;;1.10;;
37231;SDS011;23125;48.156;15.954;2023-08-30T09:41:42;1.80;;;0.90;;
37231;SDS011;23125;48.156;15.954;2023-08-30T09:44:10;1.10;;;1.00;;
37231;SDS011;23125;48.156;15.954;2023-08-30T09:46:54;1.88;;;0.82;;
37231;SDS011;23125;48.156;15.954;2023-08-30T09:49:22;1.25;;;1.15;;
37231;SDS011;23125;48.156;15.954;2023-08-30T09:51:50;1.27;;;1.15;;
37231;SDS011;23125;48.156;15.954;2023-08-30T09:54:20;0.93;;;0.82;;
37231;SDS011;23125;48.156;15.954;2023-08-30T09:56:48;1.35;;;1.25;;
37231;SDS011;23125;48.156;15.954;2023-08-30T09:59:17;1.73;;;1.10;;
37231;SDS011;23125;48.156;15.954;2023-08-30T10:01:45;1.13;;;1.02;;
37231;SDS011;23125;48.156;15.954;2023-08-30T10:06:40;1.95;;;1.23;;
37231;SDS011;23125;48.156;15.954;2023-08-30T10:09:06;2.35;;;1.17;;
37231;SDS011;23125;48.156;15.954;2023-08-30T10:11:34;1.35;;;1.02;;
37231;SDS011;23125;48.156;15.954;2023-08-30T10:14:07;2.03;;;1.20;;
37231;SDS011;23125;48.156;15.954;2023-08-30T10:16:43;1.95;;;1.20;;
37231;SDS011;23125;48.156;15.954;2023-08-30T10:24:24;2.08;;;1.20;;
37231;SDS011;23125;48.156;15.954;2023-08-30T10:26:52;1.65;;;1.20;;
37231;SDS011;23125;48.156;15.954;2023-08-30T10:29:18;1.10;;;0.90;;
37231;SDS011;23125;48.156;15.954;2023-08-30T10:31:46;2.17;;;1.60;;
37231;SDS011;23125;48.156;15.954;2023-08-30T10:34:15;1.58;;;1.10;;
37231;SDS011;23125;48.156;15.954;2023-08-30T10:36:45;1.20;;;0.95;;
37231;SDS011;23125;48.156;15.954;2023-08-30T10:39:34;1.67;;;1.25;;
37231;SDS011;23125;48.156;15.954;2023-08-30T10:42:07;1.23;;;1.10;;
37231;SDS011;23125;48.156;15.954;2023-08-30T10:44:45;1.55;;;1.20;;
37231;SDS011;23125;48.156;15.954;2023-08-30T10:47:25;2.58;;;1.13;;
37231;SDS011;23125;48.156;15.954;2023-08-30T10:49:55;3.50;;;1.30;;
37231;SDS011;23125;48.156;15.954;2023-08-30T10:52:26;2.42;;;1.42;;
37231;SDS011;23125;48.156;15.954;2023-08-30T10:55:03;1.25;;;0.95;;
37231;SDS011;23125;48.156;15.954;2023-08-30T10:57:32;1.10;;;0.85;;
37231;SDS011;23125;48.156;15.954;2023-08-30T11:02:35;1.98;;;1.00;;
37231;SDS011;23125;48.156;15.954;2023-08-30T11:05:03;0.90;;;0.57;;
37231;SDS011;23125;48.156;15.954;2023-08-30T11:07:32;1.10;;;0.80;;
37231;SDS011;23125;48.156;15.954;2023-08-30T11:09:58;2.30;;;1.20;;
37231;SDS011;23125;48.156;15.954;2023-08-30T11:12:24;2.58;;;1.23;;
37231;SDS011;23125;48.156;15.954;2023-08-30T11:14:55;1.08;;;0.75;;
37231;SDS011;23125;48.156;15.954;2023-08-30T11:17:21;2.30;;;1.15;;
37231;SDS011;23125;48.156;15.954;2023-08-30T11:19:51;0.98;;;0.88;;
37231;SDS011;23125;48.156;15.954;2023-08-30T11:22:23;2.50;;;1.13;;
37231;SDS011;23125;48.156;15.954;2023-08-30T11:24:49;1.75;;;1.25;;
37231;SDS011;23125;48.156;15.954;2023-08-30T11:27:18;1.77;;;0.90;;
37231;SDS011;23125;48.156;15.954;2023-08-30T11:29:44;0.90;;;0.80;;
37231;SDS011;23125;48.156;15.954;2023-08-30T11:32:10;2.25;;;1.05;;
37231;SDS011;23125;48.156;15.954;2023-08-30T11:34:36;1.25;;;0.90;;
37231;SDS011;23125;48.156;15.954;2023-08-30T11:37:02;2.03;;;1.00;;
37231;SDS011;23125;48.156;15.954;2023-08-30T11:39:28;2.03;;;1.23;;
37231;SDS011;23125;48.156;15.954;2023-08-30T11:41:56;2.13;;;1.55;;
37231;SDS011;23125;48.156;15.954;2023-08-30T11:44:25;1.65;;;0.90;;
37231;SDS011;23125;48.156;15.954;2023-08-30T11:47:00;1.20;;;0.98;;
37231;SDS011;23125;48.156;15.954;2023-08-30T11:49:27;1.83;;;1.23;;
37231;SDS011;23125;48.156;15.954;2023-08-30T11:52:19;1.63;;;1.27;;
37231;SDS011;23125;48.156;15.954;2023-08-30T11:54:47;3.55;;;1.70;;
37231;SDS011;23125;48.156;15.954;2023-08-30T11:57:13;3.13;;;1.75;;
37231;SDS011;23125;48.156;15.954;2023-08-30T11:59:39;2.95;;;1.60;;
37231;SDS011;23125;48.156;15.954;2023-08-30T12:02:06;1.98;;;1.50;;
37231;SDS011;23125;48.156;15.954;2023-08-30T12:04:39;2.00;;;1.33;;
37231;SDS011;23125;48.156;15.954;2023-08-30T12:07:08;2.13;;;1.55;;
37231;SDS011;23125;48.156;15.954;2023-08-30T12:09:36;2.13;;;1.60;;
37231;SDS011;23125;48.156;15.954;2023-08-30T12:12:05;2.10;;;1.70;;
37231;SDS011;23125;48.156;15.954;2023-08-30T12:14:34;1.77;;;1.20;;
37231;SDS011;23125;48.156;15.954;2023-08-30T12:17:00;1.92;;;1.60;;
37231;SDS011;23125;48.156;15.954;2023-08-30T12:19:28;4.00;;;1.60;;
37231;SDS011;23125;48.156;15.954;2023-08-30T12:21:54;3.35;;;1.52;;
37231;SDS011;23125;48.156;15.954;2023-08-30T12:24:20;1.95;;;1.50;;
37231;SDS011;23125;48.156;15.954;2023-08-30T12:26:48;1.77;;;1.63;;
37231;SDS011;23125;48.156;15.954;2023-08-30T12:29:13;1.70;;;1.50;;
37231;SDS011;23125;48.156;15.954;2023-08-30T12:31:39;1.48;;;1.38;;
37231;SDS011;23125;48.156;15.954;2023-08-30T12:34:05;1.40;;;1.25;;
37231;SDS011;23125;48.156;15.954;2023-08-30T12:36:31;1.48;;;1.10;;
37231;SDS011;23125;48.156;15.954;2023-08-30T12:38:57;1.20;;;1.10;;
37231;SDS011;23125;48.156;15.954;2023-08-30T12:41:22;2.58;;;1.30;;
37231;SDS011;23125;48.156;15.954;2023-08-30T12:43:49;2.72;;;1.90;;
37231;SDS011;23125;48.156;15.954;2023-08-30T12:46:16;2.35;;;1.35;;
37231;SDS011;23125;48.156;15.954;2023-08-30T12:48:42;1.83;;;1.60;;
37231;SDS011;23125;48.156;15.954;2023-08-30T12:51:08;2.40;;;1.70;;
37231;SDS011;23125;48.156;15.954;2023-08-30T12:53:33;1.80;;;1.50;;
37231;SDS011;23125;48.156;15.954;2023-08-30T12:55:59;2.67;;;1.88;;
37231;SDS011;23125;48.156;15.954;2023-08-30T12:58:25;1.88;;;1.67;;
37231;SDS011;23125;48.156;15.954;2023-08-30T13:00:51;2.55;;;1.83;;
37231;SDS011;23125;48.156;15.954;2023-08-30T13:03:17;1.52;;;1.42;;
37231;SDS011;23125;48.156;15.954;2023-08-30T13:05:42;2.53;;;1.70;;
37231;SDS011;23125;48.156;15.954;2023-08-30T13:08:08;1.52;;;1.30;;
37231;SDS011;23125;48.156;15.954;2023-08-30T13:10:34;2.53;;;1.83;;
37231;SDS011;23125;48.156;15.954;2023-08-30T13:13:00;2.15;;;1.70;;
37231;SDS011;23125;48.156;15.954;2023-08-30T13:15:26;2.30;;;1.60;;
37231;SDS011;23125;48.156;15.954;2023-08-30T13:17:52;2.35;;;1.58;;
37231;SDS011;23125;48.156;15.954;2023-08-30T13:20:17;2.25;;;1.48;;
37231;SDS011;23125;48.156;15.954;2023-08-30T13:22:43;1.80;;;1.55;;
37231;SDS011;23125;48.156;15.954;2023-08-30T13:25:09;2.78;;;1.40;;
37231;SDS011;23125;48.156;15.954;2023-08-30T13:27:35;2.30;;;1.45;;
37231;SDS011;23125;48.156;15.954;2023-08-30T13:30:01;2.45;;;1.40;;
37231;SDS011;23125;48.156;15.954;2023-08-30T13:32:27;1.75;;;1.30;;
37231;SDS011;23125;48.156;15.954;2023-08-30T13:34:53;1.48;;;1.35;;
37231;SDS011;23125;48.156;15.954;2023-08-30T13:37:19;3.22;;;1.48;;
37231;SDS011;23125;48.156;15.954;2023-08-30T13:39:45;2.25;;;1.20;;
37231;SDS011;23125;48.156;15.954;2023-08-30T13:42:11;2.70;;;1.58;;
37231;SDS011;23125;48.156;15.954;2023-08-30T13:44:37;2.22;;;1.30;;
37231;SDS011;23125;48.156;15.954;2023-08-30T13:47:06;1.50;;;1.38;;
37231;SDS011;23125;48.156;15.954;2023-08-30T13:49:32;1.55;;;1.23;;
37231;SDS011;23125;48.156;15.954;2023-08-30T13:51:58;1.98;;;1.10;;
37231;SDS011;23125;48.156;15.954;2023-08-30T13:54:24;1.38;;;1.20;;
37231;SDS011;23125;48.156;15.954;2023-08-30T13:56:51;1.30;;;1.10;;
37231;SDS011;23125;48.156;15.954;2023-08-30T13:59:16;1.20;;;0.90;;
37231;SDS011;23125;48.156;15.954;2023-08-30T14:01:42;1.65;;;1.02;;
37231;SDS011;23125;48.156;15.954;2023-08-30T14:04:08;0.80;;;0.77;;
37231;SDS011;23125;48.156;15.954;2023-08-30T14:06:34;1.98;;;1.27;;
37231;SDS011;23125;48.156;15.954;2023-08-30T14:09:00;2.58;;;1.00;;
37231;SDS011;23125;48.156;15.954;2023-08-30T14:11:28;1.83;;;0.90;;
37231;SDS011;23125;48.156;15.954;2023-08-30T14:13:54;0.70;;;0.60;;
37231;SDS011;23125;48.156;15.954;2023-08-30T14:16:20;0.85;;;0.60;;
37231;SDS011;23125;48.156;15.954;2023-08-30T14:18:45;0.80;;;0.60;;
37231;SDS011;23125;48.156;15.954;2023-08-30T14:21:11;0.65;;;0.57;;
37231;SDS011;23125;48.156;15.954;2023-08-30T14:23:38;0.75;;;0.60;;
37231;SDS011;23125;48.156;15.954;2023-08-30T14:26:05;0.75;;;0.63;;
37231;SDS011;23125;48.156;15.954;2023-08-30T14:28:36;1.45;;;0.52;;
37231;SDS011;23125;48.156;15.954;2023-08-30T14:31:03;0.98;;;0.70;;
37231;SDS011;23125;48.156;15.954;2023-08-30T14:33:31;0.95;;;0.80;;
37231;SDS011;23125;48.156;15.954;2023-08-30T14:35:57;0.95;;;0.80;;
37231;SDS011;23125;48.156;15.954;2023-08-30T14:38:23;1.30;;;0.90;;
37231;SDS011;23125;48.156;15.954;2023-08-30T14:40:55;0.95;;;0.70;;
37231;SDS011;23125;48.156;15.954;2023-08-30T14:43:22;1.25;;;1.00;;
37231;SDS011;23125;48.156;15.954;2023-08-30T14:45:48;1.10;;;0.93;;
37231;SDS011;23125;48.156;15.954;2023-08-30T14:48:14;1.30;;;1.10;;
37231;SDS011;23125;48.156;15.954;2023-08-30T14:50:40;2.47;;;1.40;;
37231;SDS011;23125;48.156;15.954;2023-08-30T14:53:05;1.55;;;1.38;;
37231;SDS011;23125;48.156;15.954;2023-08-30T14:55:31;2.40;;;1.30;;
37231;SDS011;23125;48.156;15.954;2023-08-30T14:57:58;2.42;;;1.13;;